createdAt,value
2022-10-23T04:02:41.758Z,13.30
2022-10-23T04:05:13.768Z,13.30
2022-10-23T04:07:45.422Z,13.30
2022-10-23T04:10:17.084Z,13.20
2022-10-23T04:12:48.749Z,13.20
2022-10-23T04:15:20.383Z,13.30
2022-10-23T04:17:53.397Z,13.30
2022-10-23T04:20:25.052Z,13.30
2022-10-23T04:22:56.697Z,13.30
2022-10-23T04:25:28.325Z,13.20
2022-10-23T04:27:59.980Z,13.20
2022-10-23T04:30:31.628Z,13.30
2022-10-23T04:33:04.666Z,13.30
2022-10-23T04:35:36.486Z,13.30
2022-10-23T04:38:08.130Z,13.30
2022-10-23T04:40:39.774Z,13.30
2022-10-23T04:43:11.409Z,13.30
2022-10-23T04:45:43.065Z,13.30
2022-10-23T04:48:16.071Z,13.30
2022-10-23T04:50:54.986Z,13.20
2022-10-23T04:53:26.673Z,13.20
2022-10-23T04:55:58.845Z,13.20
2022-10-23T04:58:30.467Z,13.30
2022-10-23T05:01:02.190Z,13.30
2022-10-23T05:03:35.305Z,13.30
2022-10-23T05:06:07.165Z,13.30
2022-10-23T05:08:38.801Z,13.40
2022-10-23T05:11:10.469Z,13.40
2022-10-23T05:13:42.106Z,13.30
2022-10-23T05:16:19.895Z,13.40
2022-10-23T05:18:52.896Z,13.30
2022-10-23T05:21:26.310Z,13.30
2022-10-23T05:23:57.947Z,13.30
2022-10-23T05:26:30.154Z,13.30
2022-10-23T05:29:01.792Z,13.30
2022-10-23T05:31:33.483Z,13.30
2022-10-23T05:34:08.788Z,13.30
2022-10-23T05:36:44.404Z,13.30
2022-10-23T05:39:16.051Z,13.30
2022-10-23T05:41:47.685Z,13.30
2022-10-23T05:44:19.309Z,13.30
2022-10-23T05:46:51.008Z,13.20
2022-10-23T05:49:25.410Z,13.20
2022-10-23T05:51:57.068Z,13.20
2022-10-23T05:54:28.699Z,13.20
2022-10-23T05:57:00.361Z,13.20
2022-10-23T05:59:32.008Z,13.20
2022-10-23T06:02:03.794Z,13.30
2022-10-23T06:04:36.862Z,13.20
2022-10-23T06:07:08.524Z,13.20
2022-10-23T06:09:40.289Z,13.30
2022-10-23T06:12:11.940Z,13.20
2022-10-23T06:14:43.573Z,13.30
2022-10-23T06:17:15.344Z,13.30
2022-10-23T06:19:48.322Z,13.30
2022-10-23T06:24:56.523Z,13.40
2022-10-23T06:27:28.213Z,13.40
2022-10-23T06:29:59.853Z,13.40
2022-10-23T06:32:31.722Z,13.40
2022-10-23T06:35:05.699Z,13.50
2022-10-23T06:37:37.381Z,13.50
2022-10-23T06:40:09.727Z,13.50
2022-10-23T06:42:41.581Z,13.60
2022-10-23T06:45:13.380Z,13.60
2022-10-23T06:47:45.410Z,13.70
2022-10-23T06:50:18.694Z,13.70
2022-10-23T06:52:50.346Z,13.80
2022-10-23T06:55:21.968Z,13.90
2022-10-23T06:57:53.825Z,13.90
2022-10-23T07:00:25.551Z,13.90
2022-10-23T07:02:57.212Z,14.00
2022-10-23T07:05:30.184Z,14.00
2022-10-23T07:08:01.926Z,14.00
2022-10-23T07:10:34.150Z,14.00
2022-10-23T07:13:05.802Z,14.10
2022-10-23T07:15:37.630Z,14.10
2022-10-23T07:18:09.271Z,14.10
2022-10-23T07:20:42.285Z,14.10
2022-10-23T07:23:13.895Z,14.20
2022-10-23T07:25:45.550Z,14.20
2022-10-23T07:28:17.188Z,14.30
2022-10-23T07:30:56.457Z,14.30
2022-10-23T07:33:28.278Z,14.40
2022-10-23T07:36:01.284Z,14.50
2022-10-23T07:38:32.962Z,14.60
2022-10-23T07:41:07.777Z,14.70
2022-10-23T07:43:41.755Z,14.80
2022-10-23T07:46:13.425Z,14.80
2022-10-23T07:48:45.065Z,14.90
2022-10-23T07:51:18.110Z,15.00
2022-10-23T07:53:49.781Z,15.00
2022-10-23T07:56:23.446Z,15.00
2022-10-23T07:58:55.105Z,15.10
2022-10-23T08:01:29.782Z,15.10
2022-10-23T08:04:01.683Z,15.20
2022-10-23T08:06:34.677Z,15.20
2022-10-23T08:09:07.232Z,15.20
2022-10-23T08:11:38.947Z,15.30
2022-10-23T08:14:10.597Z,15.40
2022-10-23T08:16:42.250Z,15.40
2022-10-23T08:19:13.915Z,15.30
2022-10-23T08:21:46.957Z,15.40
2022-10-23T08:24:18.606Z,15.40
2022-10-23T08:26:50.462Z,15.40
2022-10-23T08:29:22.113Z,15.40
2022-10-23T08:31:54.041Z,15.50
2022-10-23T08:34:25.724Z,15.50
2022-10-23T08:36:58.744Z,15.60
2022-10-23T08:39:30.409Z,15.60
2022-10-23T08:42:02.098Z,15.70
2022-10-23T08:44:36.106Z,15.80
2022-10-23T08:47:09.335Z,15.80
2022-10-23T08:49:44.013Z,15.90
2022-10-23T08:52:19.615Z,16.10
2022-10-23T08:55:00.965Z,16.20
2022-10-23T08:57:33.562Z,16.20
2022-10-23T09:00:06.726Z,16.30
2022-10-23T09:02:40.599Z,16.30
2022-10-23T09:05:15.018Z,16.30
2022-10-23T09:07:56.266Z,16.40
2022-10-23T09:10:51.517Z,16.40
2022-10-23T09:13:36.867Z,16.50
2022-10-23T09:16:14.227Z,16.60
2022-10-23T09:18:46.217Z,16.60
2022-10-23T09:21:17.885Z,16.70
2022-10-23T09:23:50.864Z,16.80
2022-10-23T09:26:22.532Z,16.80
2022-10-23T09:29:01.881Z,16.90
2022-10-23T09:31:33.528Z,17.10
2022-10-23T09:34:08.479Z,17.10
2022-10-23T09:36:51.473Z,17.20
2022-10-23T09:39:27.647Z,17.30
2022-10-23T09:41:59.464Z,17.40
2022-10-23T09:44:31.900Z,17.50
2022-10-23T09:47:09.151Z,17.60
2022-10-23T09:49:46.249Z,17.60
2022-10-23T09:52:23.490Z,17.60
2022-10-23T09:54:57.365Z,17.70
2022-10-23T09:57:30.521Z,17.80
2022-10-23T10:00:03.655Z,17.90
2022-10-23T10:02:36.055Z,18.00
2022-10-23T10:05:23.864Z,18.10
2022-10-23T10:07:59.889Z,18.20
2022-10-23T10:10:35.837Z,18.30
2022-10-23T10:13:14.871Z,18.50
2022-10-23T10:18:40.085Z,18.50
2022-10-23T10:21:14.186Z,18.60
2022-10-23T10:23:47.055Z,18.60
2022-10-23T10:26:27.246Z,18.70
2022-10-23T10:29:03.989Z,18.70
2022-10-23T10:31:41.997Z,18.70
2022-10-23T10:34:17.060Z,18.70
2022-10-23T10:36:50.757Z,18.70
2022-10-23T10:39:28.054Z,18.70
2022-10-23T10:42:08.487Z,18.70
2022-10-23T10:44:49.381Z,18.70
2022-10-23T10:47:22.544Z,18.70
2022-10-23T10:50:03.362Z,18.70
2022-10-23T10:52:39.420Z,18.60
2022-10-23T10:55:14.847Z,18.70
2022-10-23T10:57:50.269Z,18.60
2022-10-23T11:00:22.586Z,18.60
2022-10-23T11:02:57.329Z,18.60
2022-10-23T11:05:31.423Z,18.60
2022-10-23T11:08:05.681Z,18.60
2022-10-23T11:10:38.053Z,18.60
2022-10-23T11:13:18.681Z,18.70
2022-10-23T11:18:24.043Z,18.60
2022-10-23T11:20:59.779Z,18.50
2022-10-23T11:23:59.928Z,18.50
2022-10-23T11:26:37.909Z,18.30
2022-10-23T11:29:29.338Z,18.20
2022-10-23T11:32:25.564Z,18.00
2022-10-23T11:35:04.028Z,17.80
2022-10-23T11:37:35.830Z,17.70
2022-10-23T11:40:19.659Z,17.60
2022-10-23T11:42:51.587Z,17.70
2022-10-23T11:45:33.178Z,17.70
2022-10-23T11:48:06.039Z,17.70
2022-10-23T11:50:50.098Z,17.80
2022-10-23T11:53:26.739Z,17.90
2022-10-23T11:56:00.097Z,18.10
2022-10-23T11:58:44.673Z,18.30
2022-10-23T12:01:28.495Z,18.40
2022-10-23T12:04:02.343Z,18.40
2022-10-23T12:06:39.047Z,18.50
2022-10-23T12:09:23.440Z,18.60
2022-10-23T12:12:13.746Z,18.70
2022-10-23T12:14:46.439Z,18.80
2022-10-23T12:17:35.083Z,18.80
2022-10-23T12:20:23.187Z,18.80
2022-10-23T12:23:02.944Z,18.80
2022-10-23T12:25:38.996Z,18.90
2022-10-23T12:28:15.582Z,18.90
2022-10-23T12:30:49.861Z,19.00
2022-10-23T12:33:24.918Z,18.90
2022-10-23T12:36:23.742Z,18.90
2022-10-23T12:38:55.387Z,19.00
2022-10-23T12:41:27.979Z,19.00
2022-10-23T12:44:01.172Z,19.00
2022-10-23T12:46:33.830Z,19.10
2022-10-23T12:49:13.690Z,19.10
2022-10-23T12:51:45.475Z,19.10
2022-10-23T12:54:18.314Z,19.10
2022-10-23T12:56:50.106Z,19.20
2022-10-23T12:59:23.355Z,19.20
2022-10-23T13:01:55.345Z,19.20
2022-10-23T13:04:30.054Z,19.20
2022-10-23T13:07:02.259Z,19.10
2022-10-23T13:09:35.460Z,19.10
2022-10-23T13:12:07.744Z,19.20
2022-10-23T13:14:43.766Z,19.10
2022-10-23T13:17:16.327Z,19.10
2022-10-23T13:19:49.325Z,19.10
2022-10-23T13:22:20.957Z,19.10
2022-10-23T13:24:52.622Z,19.00
2022-10-23T13:27:32.274Z,19.00
2022-10-23T13:30:07.177Z,19.00
2022-10-23T13:32:41.926Z,19.00
2022-10-23T13:35:21.815Z,19.00
2022-10-23T13:37:53.913Z,19.00
2022-10-23T13:40:26.381Z,19.10
2022-10-23T13:42:58.025Z,19.10
2022-10-23T13:45:29.705Z,19.20
2022-10-23T13:48:01.375Z,19.20
2022-10-23T13:50:34.399Z,19.20
2022-10-23T13:53:06.045Z,19.20
2022-10-23T13:55:37.698Z,19.20
2022-10-23T13:58:09.545Z,19.20
2022-10-23T14:00:41.200Z,19.20
2022-10-23T14:03:12.855Z,19.20
2022-10-23T14:05:45.906Z,19.20
2022-10-23T14:08:17.579Z,19.10
2022-10-23T14:10:49.249Z,19.10
2022-10-23T14:13:20.896Z,19.10
2022-10-23T14:15:55.652Z,19.00
2022-10-23T14:18:27.309Z,19.00
2022-10-23T14:21:01.397Z,19.00
2022-10-23T14:23:33.055Z,19.00
2022-10-23T14:26:04.896Z,19.00
2022-10-23T14:28:36.664Z,18.90
2022-10-23T14:31:09.098Z,18.90
2022-10-23T14:33:40.839Z,18.90
2022-10-23T14:36:13.871Z,18.90
2022-10-23T14:38:45.550Z,18.90
2022-10-23T14:41:17.328Z,18.90
2022-10-23T14:43:49.017Z,18.90
2022-10-23T14:46:22.744Z,18.60
2022-10-23T14:48:54.952Z,18.80
2022-10-23T14:51:31.733Z,18.70
2022-10-23T14:54:04.342Z,18.70
2022-10-23T14:56:37.584Z,18.60
2022-10-23T14:59:09.213Z,18.60
2022-10-23T15:01:45.135Z,18.60
2022-10-23T15:04:18.887Z,18.60
2022-10-23T15:06:51.876Z,18.60
2022-10-23T15:09:23.530Z,18.50
2022-10-23T15:11:55.155Z,18.50
2022-10-23T15:14:26.842Z,18.50
2022-10-23T15:16:58.475Z,18.50
2022-10-23T15:19:30.148Z,18.40
2022-10-23T15:22:03.129Z,18.40
2022-10-23T15:24:34.854Z,18.40
2022-10-23T15:27:06.519Z,18.40
2022-10-23T15:29:38.190Z,18.30
2022-10-23T15:32:10.059Z,18.30
2022-10-23T15:34:41.891Z,18.30
2022-10-23T15:37:14.908Z,18.20
2022-10-23T15:39:46.571Z,18.20
2022-10-23T15:42:18.237Z,18.20
2022-10-23T15:44:49.884Z,18.20
2022-10-23T15:47:21.510Z,18.20
2022-10-23T15:49:53.173Z,18.20
2022-10-23T15:52:26.150Z,18.30
2022-10-23T15:54:57.810Z,18.20
2022-10-23T15:57:29.449Z,18.20
2022-10-23T16:00:01.213Z,18.20
2022-10-23T16:02:33.009Z,18.20
2022-10-23T16:05:05.307Z,18.20
2022-10-23T16:07:38.294Z,18.20
2022-10-23T16:10:10.126Z,18.20
2022-10-23T16:12:42.106Z,18.10
2022-10-23T16:15:14.059Z,18.10
2022-10-23T16:17:46.099Z,18.10
2022-10-23T16:20:17.896Z,18.00
2022-10-23T16:22:50.911Z,17.90
2022-10-23T16:25:22.631Z,17.90
2022-10-23T16:27:54.312Z,17.90
2022-10-23T16:30:25.981Z,17.80
2022-10-23T16:32:57.616Z,17.70
2022-10-23T16:35:29.242Z,17.70
2022-10-23T16:38:02.207Z,17.60
2022-10-23T16:40:33.874Z,17.60
2022-10-23T16:43:05.492Z,17.50
2022-10-23T16:45:37.889Z,17.50
2022-10-23T16:48:09.668Z,17.40
2022-10-23T16:50:41.406Z,17.30
2022-10-23T16:53:14.389Z,17.20
2022-10-23T16:55:46.040Z,17.20
2022-10-23T16:58:17.683Z,17.10
2022-10-23T17:00:56.424Z,17.00
2022-10-23T17:03:28.147Z,16.80
2022-10-23T17:06:01.599Z,16.70
2022-10-23T17:08:35.247Z,16.60
2022-10-23T17:11:07.664Z,16.50
2022-10-23T17:13:42.043Z,16.40
2022-10-23T17:16:14.704Z,16.40
2022-10-23T17:18:46.481Z,16.30
2022-10-23T17:21:19.443Z,16.30
2022-10-23T17:23:52.636Z,16.20
2022-10-23T17:26:24.349Z,16.20
2022-10-23T17:28:56.843Z,16.20
2022-10-23T17:31:29.374Z,16.20
2022-10-23T17:34:02.016Z,16.20
2022-10-23T17:36:35.059Z,16.20
2022-10-23T17:39:08.388Z,16.30
2022-10-23T17:41:40.240Z,16.30
2022-10-23T17:44:11.961Z,16.30
2022-10-23T17:46:43.633Z,16.30
2022-10-23T17:49:15.276Z,16.30
2022-10-23T17:51:49.706Z,16.10
2022-10-23T17:54:22.827Z,16.20
2022-10-23T17:56:54.494Z,16.20
2022-10-23T17:59:26.143Z,16.20
2022-10-23T18:01:57.841Z,16.20
2022-10-23T18:04:29.681Z,16.20
2022-10-23T18:07:01.324Z,16.10
2022-10-23T18:09:34.328Z,16.10
2022-10-23T18:12:06.083Z,16.10
2022-10-23T18:14:37.830Z,16.10
2022-10-23T18:17:09.475Z,16.00
2022-10-23T18:19:41.128Z,16.10
2022-10-23T18:22:12.835Z,16.00
2022-10-23T18:24:45.906Z,16.00
2022-10-23T18:27:17.523Z,16.00
2022-10-23T18:29:49.177Z,16.00
2022-10-23T18:32:20.807Z,16.00
2022-10-23T18:34:52.463Z,15.90
2022-10-23T18:37:26.044Z,15.90
2022-10-23T18:40:01.770Z,15.90
2022-10-23T18:42:33.444Z,15.90
2022-10-23T18:45:05.836Z,16.00
2022-10-23T18:47:37.466Z,15.80
2022-10-23T18:50:09.818Z,15.80
2022-10-23T18:52:41.466Z,15.40
2022-10-23T18:55:14.477Z,15.80
2022-10-23T18:57:46.473Z,15.80
2022-10-23T19:00:18.388Z,15.70
2022-10-23T19:02:52.335Z,15.70
2022-10-23T19:05:24.415Z,15.70
2022-10-23T19:07:56.057Z,15.70
2022-10-23T19:10:29.282Z,15.80
2022-10-23T19:13:00.913Z,15.70
2022-10-23T19:15:32.620Z,15.70
2022-10-23T19:18:04.818Z,15.70
2022-10-23T19:20:36.467Z,15.70
2022-10-23T19:23:09.306Z,15.70
2022-10-23T19:25:42.967Z,15.70
2022-10-23T19:28:14.758Z,15.70
2022-10-23T19:30:46.429Z,15.70
2022-10-23T19:33:18.097Z,15.60
2022-10-23T19:35:49.739Z,15.50
2022-10-23T19:38:21.373Z,15.50
2022-10-23T19:40:54.369Z,15.50
2022-10-23T19:43:26.024Z,15.40
2022-10-23T19:46:00.380Z,15.40
2022-10-23T19:48:32.008Z,15.40
2022-10-23T19:51:03.905Z,15.40
2022-10-23T19:53:35.547Z,15.40
2022-10-23T19:56:09.419Z,15.30
2022-10-23T19:58:41.164Z,15.30
2022-10-23T20:01:13.907Z,15.30
2022-10-23T20:03:45.747Z,15.30
2022-10-23T20:06:19.841Z,15.30
2022-10-23T20:08:51.566Z,15.30
2022-10-23T20:11:25.951Z,15.20
2022-10-23T20:13:57.769Z,15.20
2022-10-23T20:16:30.183Z,15.20
2022-10-23T20:19:02.091Z,15.20
2022-10-23T20:21:34.933Z,15.20
2022-10-23T20:24:07.312Z,15.20
2022-10-23T20:26:40.692Z,15.20
2022-10-23T20:29:12.388Z,15.10
2022-10-23T20:31:44.027Z,15.10
2022-10-23T20:34:15.682Z,15.30
2022-10-23T20:36:48.509Z,15.20
2022-10-23T20:39:20.953Z,15.20
2022-10-23T20:41:53.933Z,15.20
2022-10-23T20:44:25.577Z,15.20
2022-10-23T20:46:57.222Z,15.20
2022-10-23T20:49:28.977Z,15.20
2022-10-23T20:52:00.758Z,15.20
2022-10-23T20:54:32.417Z,15.20
2022-10-23T20:57:05.435Z,15.20
2022-10-23T20:59:37.089Z,15.20
2022-10-23T21:02:09.760Z,15.20
2022-10-23T21:04:41.769Z,15.30
2022-10-23T21:07:13.472Z,15.40
2022-10-23T21:09:45.214Z,15.40
2022-10-23T21:12:18.210Z,15.40
2022-10-23T21:14:49.873Z,15.40
2022-10-23T21:17:21.558Z,15.40
2022-10-23T21:19:53.297Z,15.40
2022-10-23T21:22:24.937Z,15.40
2022-10-23T21:24:56.574Z,15.40
2022-10-23T21:27:29.558Z,15.40
2022-10-23T21:30:01.201Z,15.30
2022-10-23T21:32:32.836Z,15.30
2022-10-23T21:35:05.073Z,15.40
2022-10-23T21:37:36.689Z,15.30
2022-10-23T21:40:09.838Z,15.40
2022-10-23T21:42:42.821Z,15.40
2022-10-23T21:45:14.534Z,15.40
2022-10-23T21:47:46.516Z,15.40
2022-10-23T21:50:18.525Z,15.40
2022-10-23T21:52:50.824Z,15.40
2022-10-23T21:55:25.547Z,15.30
2022-10-23T21:57:58.513Z,15.30
2022-10-23T23:54:38.421Z,15.00
2022-10-23T23:57:10.420Z,14.90
2022-10-23T23:59:42.128Z,14.90
